sensor_id;sensor_type;location;lat;lon;timestamp;pressure;altitude;pressure_sealevel;temperature;humidity
75650;BME280;64245;51.282;22.494;2023-09-08T00:02:23;100052.41;;;14.52;100.00
75650;BME280;64245;51.282;22.494;2023-09-08T00:04:49;100044.59;;;14.49;100.00
75650;BME280;64245;51.282;22.494;2023-09-08T00:07:15;100045.03;;;14.44;100.00
75650;BME280;64245;51.282;22.494;2023-09-08T00:09:41;100047.91;;;14.43;100.00
75650;BME280;64245;51.282;22.494;2023-09-08T00:12:06;100050.31;;;14.46;100.00
75650;BME280;64245;51.282;22.494;2023-09-08T00:14:32;100053.59;;;14.40;100.00
75650;BME280;64245;51.282;22.494;2023-09-08T00:16:58;100053.91;;;14.37;100.00
75650;BME280;64245;51.282;22.494;2023-09-08T00:19:24;100059.47;;;14.35;100.00
75650;BME280;64245;51.282;22.494;2023-09-08T00:21:50;100058.31;;;14.38;100.00
75650;BME280;64245;51.282;22.494;2023-09-08T00:24:16;100058.75;;;14.43;100.00
75650;BME280;64245;51.282;22.494;2023-09-08T00:26:41;100050.63;;;14.33;100.00
75650;BME280;64245;51.282;22.494;2023-09-08T00:29:07;100064.19;;;14.33;100.00
75650;BME280;64245;51.282;22.494;2023-09-08T00:31:33;100056.50;;;14.29;100.00
75650;BME280;64245;51.282;22.494;2023-09-08T00:33:59;100054.63;;;14.29;100.00
75650;BME280;64245;51.282;22.494;2023-09-08T00:36:24;100056.19;;;14.32;100.00
75650;BME280;64245;51.282;22.494;2023-09-08T00:38:50;100066.91;;;14.43;100.00
75650;BME280;64245;51.282;22.494;2023-09-08T00:41:16;100056.44;;;14.48;100.00
75650;BME280;64245;51.282;22.494;2023-09-08T00:43:41;100058.13;;;14.49;100.00
75650;BME280;64245;51.282;22.494;2023-09-08T00:46:07;100055.69;;;14.56;100.00
75650;BME280;64245;51.282;22.494;2023-09-08T00:48:34;100057.09;;;14.60;100.00
75650;BME280;64245;51.282;22.494;2023-09-08T00:51:00;100057.25;;;14.58;100.00
75650;BME280;64245;51.282;22.494;2023-09-08T00:53:27;100051.97;;;14.57;100.00
75650;BME280;64245;51.282;22.494;2023-09-08T00:55:53;100046.47;;;14.66;100.00
75650;BME280;64245;51.282;22.494;2023-09-08T00:58:20;100047.47;;;14.65;100.00
75650;BME280;64245;51.282;22.494;2023-09-08T01:00:46;100051.34;;;14.63;100.00
75650;BME280;64245;51.282;22.494;2023-09-08T01:03:12;100044.78;;;14.65;100.00
75650;BME280;64245;51.282;22.494;2023-09-08T01:05:38;100038.06;;;14.69;100.00
75650;BME280;64245;51.282;22.494;2023-09-08T01:08:05;100042.41;;;14.80;100.00
75650;BME280;64245;51.282;22.494;2023-09-08T01:10:31;100043.41;;;14.79;100.00
75650;BME280;64245;51.282;22.494;2023-09-08T01:12:57;100039.47;;;14.73;100.00
75650;BME280;64245;51.282;22.494;2023-09-08T01:15:23;100049.59;;;14.71;100.00
75650;BME280;64245;51.282;22.494;2023-09-08T01:17:48;100040.47;;;14.72;100.00
75650;BME280;64245;51.282;22.494;2023-09-08T01:23:22;100044.56;;;14.76;100.00
75650;BME280;64245;51.282;22.494;2023-09-08T01:25:55;100029.31;;;14.75;100.00
75650;BME280;64245;51.282;22.494;2023-09-08T01:28:23;100036.44;;;14.76;100.00
75650;BME280;64245;51.282;22.494;2023-09-08T01:30:50;100034.03;;;14.73;100.00
75650;BME280;64245;51.282;22.494;2023-09-08T01:33:17;100035.75;;;14.74;100.00
75650;BME280;64245;51.282;22.494;2023-09-08T01:35:43;100040.91;;;14.68;100.00
75650;BME280;64245;51.282;22.494;2023-09-08T01:38:08;100041.69;;;14.60;100.00
75650;BME280;64245;51.282;22.494;2023-09-08T01:40:34;100035.56;;;14.58;100.00
75650;BME280;64245;51.282;22.494;2023-09-08T01:43:00;100036.16;;;14.52;100.00
75650;BME280;64245;51.282;22.494;2023-09-08T01:45:26;100042.28;;;14.54;100.00
75650;BME280;64245;51.282;22.494;2023-09-08T01:47:52;100042.03;;;14.47;100.00
75650;BME280;64245;51.282;22.494;2023-09-08T01:50:17;100033.66;;;14.31;100.00
75650;BME280;64245;51.282;22.494;2023-09-08T01:52:48;100041.00;;;14.21;100.00
75650;BME280;64245;51.282;22.494;2023-09-08T01:55:14;100022.47;;;14.16;100.00
75650;BME280;64245;51.282;22.494;2023-09-08T01:57:42;100031.19;;;14.10;100.00
75650;BME280;64245;51.282;22.494;2023-09-08T02:00:08;100030.25;;;14.02;100.00
75650;BME280;64245;51.282;22.494;2023-09-08T02:02:34;100025.69;;;13.93;100.00
75650;BME280;64245;51.282;22.494;2023-09-08T02:05:00;100025.00;;;13.91;100.00
75650;BME280;64245;51.282;22.494;2023-09-08T02:07:26;100022.19;;;13.82;100.00
75650;BME280;64245;51.282;22.494;2023-09-08T02:09:51;100024.91;;;13.82;100.00
75650;BME280;64245;51.282;22.494;2023-09-08T02:12:17;100024.91;;;13.82;100.00
75650;BME280;64245;51.282;22.494;2023-09-08T02:14:43;100019.63;;;13.81;100.00
75650;BME280;64245;51.282;22.494;2023-09-08T02:17:08;100022.03;;;13.84;100.00
75650;BME280;64245;51.282;22.494;2023-09-08T02:19:35;100010.09;;;13.67;100.00
75650;BME280;64245;51.282;22.494;2023-09-08T02:22:00;100026.19;;;13.69;100.00
75650;BME280;64245;51.282;22.494;2023-09-08T02:24:26;100025.34;;;13.68;100.00
75650;BME280;64245;51.282;22.494;2023-09-08T02:26:52;100033.47;;;13.78;100.00
75650;BME280;64245;51.282;22.494;2023-09-08T02:29:18;100017.94;;;13.70;100.00
75650;BME280;64245;51.282;22.494;2023-09-08T02:31:44;100012.66;;;13.69;100.00
75650;BME280;64245;51.282;22.494;2023-09-08T02:34:10;100007.09;;;13.80;100.00
75650;BME280;64245;51.282;22.494;2023-09-08T02:36:38;99999.97;;;13.79;100.00
75650;BME280;64245;51.282;22.494;2023-09-08T02:39:04;100005.66;;;13.76;100.00
75650;BME280;64245;51.282;22.494;2023-09-08T02:41:30;100007.56;;;13.66;100.00
75650;BME280;64245;51.282;22.494;2023-09-08T02:43:56;100002.97;;;13.66;100.00
75650;BME280;64245;51.282;22.494;2023-09-08T02:46:22;99997.31;;;13.60;100.00
75650;BME280;64245;51.282;22.494;2023-09-08T02:48:47;100001.50;;;13.44;100.00
75650;BME280;64245;51.282;22.494;2023-09-08T02:51:13;99987.09;;;13.34;100.00
75650;BME280;64245;51.282;22.494;2023-09-08T02:53:39;99982.97;;;13.40;100.00
75650;BME280;64245;51.282;22.494;2023-09-08T02:56:05;99983.84;;;13.31;100.00
75650;BME280;64245;51.282;22.494;2023-09-08T02:58:34;99986.53;;;13.31;100.00
75650;BME280;64245;51.282;22.494;2023-09-08T03:01:11;99994.13;;;13.27;100.00
75650;BME280;64245;51.282;22.494;2023-09-08T03:03:40;99995.13;;;13.26;100.00
75650;BME280;64245;51.282;22.494;2023-09-08T03:06:06;99990.00;;;13.23;100.00
75650;BME280;64245;51.282;22.494;2023-09-08T03:08:32;99991.56;;;13.16;100.00
75650;BME280;64245;51.282;22.494;2023-09-08T03:10:59;99992.41;;;13.07;100.00
75650;BME280;64245;51.282;22.494;2023-09-08T03:13:25;99983.84;;;13.02;100.00
75650;BME280;64245;51.282;22.494;2023-09-08T03:15:55;99983.41;;;12.97;100.00
75650;BME280;64245;51.282;22.494;2023-09-08T03:18:21;99980.28;;;12.92;100.00
75650;BME280;64245;51.282;22.494;2023-09-08T03:20:50;99983.13;;;12.90;100.00
75650;BME280;64245;51.282;22.494;2023-09-08T03:23:16;99977.72;;;12.90;100.00
75650;BME280;64245;51.282;22.494;2023-09-08T03:25:42;99978.75;;;12.89;100.00
75650;BME280;64245;51.282;22.494;2023-09-08T03:28:08;99988.13;;;12.85;100.00
75650;BME280;64245;51.282;22.494;2023-09-08T03:30:33;99990.97;;;12.84;100.00
75650;BME280;64245;51.282;22.494;2023-09-08T03:32:59;99988.41;;;12.82;100.00
75650;BME280;64245;51.282;22.494;2023-09-08T03:35:25;99988.25;;;12.74;100.00
75650;BME280;64245;51.282;22.494;2023-09-08T03:37:50;99993.78;;;12.72;100.00
75650;BME280;64245;51.282;22.494;2023-09-08T03:40:16;99978.28;;;12.65;100.00
75650;BME280;64245;51.282;22.494;2023-09-08T03:42:42;99985.28;;;12.67;100.00
75650;BME280;64245;51.282;22.494;2023-09-08T03:45:08;99976.00;;;12.60;100.00
75650;BME280;64245;51.282;22.494;2023-09-08T03:47:34;99984.16;;;12.70;100.00
75650;BME280;64245;51.282;22.494;2023-09-08T03:50:00;99989.94;;;12.75;100.00
75650;BME280;64245;51.282;22.494;2023-09-08T03:52:25;99990.22;;;12.72;100.00
75650;BME280;64245;51.282;22.494;2023-09-08T03:54:52;99980.72;;;12.68;100.00
75650;BME280;64245;51.282;22.494;2023-09-08T03:57:17;99977.59;;;12.63;100.00
75650;BME280;64245;51.282;22.494;2023-09-08T03:59:43;99983.25;;;12.60;100.00
75650;BME280;64245;51.282;22.494;2023-09-08T04:02:08;99982.69;;;12.56;100.00
75650;BME280;64245;51.282;22.494;2023-09-08T04:04:34;99984.25;;;12.59;100.00
75650;BME280;64245;51.282;22.494;2023-09-08T04:07:00;99975.56;;;12.55;100.00
75650;BME280;64245;51.282;22.494;2023-09-08T04:09:26;99974.84;;;12.53;100.00
75650;BME280;64245;51.282;22.494;2023-09-08T04:11:53;99972.16;;;12.43;100.00
75650;BME280;64245;51.282;22.494;2023-09-08T04:14:22;99978.13;;;12.57;100.00
75650;BME280;64245;51.282;22.494;2023-09-08T04:16:53;99977.84;;;12.60;100.00
75650;BME280;64245;51.282;22.494;2023-09-08T04:19:18;99976.56;;;12.54;100.00
75650;BME280;64245;51.282;22.494;2023-09-08T04:21:44;99969.59;;;12.52;100.00
75650;BME280;64245;51.282;22.494;2023-09-08T04:24:10;99963.31;;;12.51;100.00
75650;BME280;64245;51.282;22.494;2023-09-08T04:26:36;99972.44;;;12.60;100.00
75650;BME280;64245;51.282;22.494;2023-09-08T04:29:02;99966.78;;;12.63;100.00
75650;BME280;64245;51.282;22.494;2023-09-08T04:31:27;99976.16;;;12.68;100.00
75650;BME280;64245;51.282;22.494;2023-09-08T04:33:54;99969.78;;;12.69;100.00
75650;BME280;64245;51.282;22.494;2023-09-08T04:36:19;99973.16;;;12.71;100.00
75650;BME280;64245;51.282;22.494;2023-09-08T04:38:45;99978.72;;;12.79;100.00
75650;BME280;64245;51.282;22.494;2023-09-08T04:41:10;99975.03;;;12.80;100.00
75650;BME280;64245;51.282;22.494;2023-09-08T04:43:36;99964.06;;;12.82;100.00
75650;BME280;64245;51.282;22.494;2023-09-08T04:46:02;99969.06;;;12.87;100.00
75650;BME280;64245;51.282;22.494;2023-09-08T04:48:29;99963.19;;;12.91;100.00
75650;BME280;64245;51.282;22.494;2023-09-08T04:50:56;99969.63;;;13.00;100.00
75650;BME280;64245;51.282;22.494;2023-09-08T04:53:22;99977.31;;;13.04;100.00
75650;BME280;64245;51.282;22.494;2023-09-08T04:55:47;99976.56;;;13.12;100.00
75650;BME280;64245;51.282;22.494;2023-09-08T04:58:13;99977.28;;;13.14;100.00
75650;BME280;64245;51.282;22.494;2023-09-08T05:00:39;99981.03;;;13.23;100.00
75650;BME280;64245;51.282;22.494;2023-09-08T05:03:08;99973.88;;;13.31;100.00
75650;BME280;64245;51.282;22.494;2023-09-08T05:05:34;99966.75;;;13.40;100.00
75650;BME280;64245;51.282;22.494;2023-09-08T05:07:59;99972.25;;;13.48;100.00
75650;BME280;64245;51.282;22.494;2023-09-08T05:10:25;99969.41;;;13.49;100.00
75650;BME280;64245;51.282;22.494;2023-09-08T05:12:51;99972.25;;;13.58;100.00
75650;BME280;64245;51.282;22.494;2023-09-08T05:15:17;99967.97;;;13.65;100.00
75650;BME280;64245;51.282;22.494;2023-09-08T05:17:46;99963.50;;;13.73;100.00
75650;BME280;64245;51.282;22.494;2023-09-08T05:20:12;99964.47;;;13.82;100.00
75650;BME280;64245;51.282;22.494;2023-09-08T05:22:37;99953.75;;;13.90;100.00
75650;BME280;64245;51.282;22.494;2023-09-08T05:25:03;99961.53;;;14.03;100.00
75650;BME280;64245;51.282;22.494;2023-09-08T05:27:30;99963.31;;;14.12;100.00
75650;BME280;64245;51.282;22.494;2023-09-08T05:29:57;99956.16;;;14.21;100.00
75650;BME280;64245;51.282;22.494;2023-09-08T05:32:23;99959.94;;;14.28;100.00
75650;BME280;64245;51.282;22.494;2023-09-08T05:34:48;99958.50;;;14.33;100.00
75650;BME280;64245;51.282;22.494;2023-09-08T05:37:14;99966.13;;;14.47;100.00
75650;BME280;64245;51.282;22.494;2023-09-08T05:39:40;99963.38;;;14.57;100.00
75650;BME280;64245;51.282;22.494;2023-09-08T05:42:06;99949.53;;;14.60;100.00
75650;BME280;64245;51.282;22.494;2023-09-08T05:44:32;99960.66;;;14.75;100.00
75650;BME280;64245;51.282;22.494;2023-09-08T05:46:58;99968.25;;;14.89;100.00
75650;BME280;64245;51.282;22.494;2023-09-08T05:49:23;99960.34;;;14.96;100.00
75650;BME280;64245;51.282;22.494;2023-09-08T05:51:49;99975.44;;;15.16;100.00
75650;BME280;64245;51.282;22.494;2023-09-08T05:54:15;99972.31;;;15.29;100.00
75650;BME280;64245;51.282;22.494;2023-09-08T05:56:40;99976.13;;;15.36;100.00
75650;BME280;64245;51.282;22.494;2023-09-08T05:59:06;99971.44;;;15.46;100.00
75650;BME280;64245;51.282;22.494;2023-09-08T06:01:32;99975.78;;;15.57;100.00
75650;BME280;64245;51.282;22.494;2023-09-08T06:03:58;99957.06;;;15.53;100.00
75650;BME280;64245;51.282;22.494;2023-09-08T06:06:24;99970.13;;;15.76;100.00
75650;BME280;64245;51.282;22.494;2023-09-08T06:08:50;99954.34;;;15.79;100.00
75650;BME280;64245;51.282;22.494;2023-09-08T06:11:16;99962.59;;;15.96;100.00
75650;BME280;64245;51.282;22.494;2023-09-08T06:13:42;99967.91;;;16.05;100.00
75650;BME280;64245;51.282;22.494;2023-09-08T06:16:08;99965.41;;;16.20;100.00
75650;BME280;64245;51.282;22.494;2023-09-08T06:18:34;99950.63;;;16.22;100.00
75650;BME280;64245;51.282;22.494;2023-09-08T06:21:06;99958.66;;;16.32;100.00
75650;BME280;64245;51.282;22.494;2023-09-08T06:23:33;99960.91;;;16.45;100.00
75650;BME280;64245;51.282;22.494;2023-09-08T06:25:59;99964.69;;;16.52;100.00
75650;BME280;64245;51.282;22.494;2023-09-08T06:28:29;99961.66;;;16.63;100.00
75650;BME280;64245;51.282;22.494;2023-09-08T06:30:54;99967.97;;;16.72;100.00
75650;BME280;64245;51.282;22.494;2023-09-08T06:33:20;99971.38;;;16.82;100.00
75650;BME280;64245;51.282;22.494;2023-09-08T06:35:48;99973.44;;;16.96;100.00
75650;BME280;64245;51.282;22.494;2023-09-08T06:38:13;99969.22;;;17.10;98.70
75650;BME280;64245;51.282;22.494;2023-09-08T06:40:39;99968.84;;;17.21;98.33
75650;BME280;64245;51.282;22.494;2023-09-08T06:43:05;99973.44;;;17.37;99.20
75650;BME280;64245;51.282;22.494;2023-09-08T06:45:31;99965.28;;;17.45;95.18
75650;BME280;64245;51.282;22.494;2023-09-08T06:47:56;99966.44;;;17.58;95.50
75650;BME280;64245;51.282;22.494;2023-09-08T06:50:23;99970.34;;;17.72;94.74
75650;BME280;64245;51.282;22.494;2023-09-08T06:52:49;99966.59;;;17.81;94.29
75650;BME280;64245;51.282;22.494;2023-09-08T06:55:16;99958.69;;;17.94;95.07
75650;BME280;64245;51.282;22.494;2023-09-08T06:57:43;99961.19;;;18.12;94.18
75650;BME280;64245;51.282;22.494;2023-09-08T07:00:09;99962.03;;;18.21;92.06
75650;BME280;64245;51.282;22.494;2023-09-08T07:02:37;99967.75;;;18.34;91.09
75650;BME280;64245;51.282;22.494;2023-09-08T07:05:03;99955.59;;;18.45;90.47
75650;BME280;64245;51.282;22.494;2023-09-08T07:07:37;99967.72;;;18.73;91.45
75650;BME280;64245;51.282;22.494;2023-09-08T07:10:03;99959.16;;;18.84;90.31
75650;BME280;64245;51.282;22.494;2023-09-08T07:12:29;99958.41;;;18.90;88.87
75650;BME280;64245;51.282;22.494;2023-09-08T07:14:56;99963.19;;;19.11;88.69
75650;BME280;64245;51.282;22.494;2023-09-08T07:17:21;99954.44;;;19.16;88.88
75650;BME280;64245;51.282;22.494;2023-09-08T07:19:51;99970.16;;;19.37;93.03
75650;BME280;64245;51.282;22.494;2023-09-08T07:22:17;99965.44;;;19.45;91.81
75650;BME280;64245;51.282;22.494;2023-09-08T07:24:44;99959.94;;;19.53;88.68
75650;BME280;64245;51.282;22.494;2023-09-08T07:27:10;99958.63;;;19.64;89.41
75650;BME280;64245;51.282;22.494;2023-09-08T07:29:38;99964.31;;;19.77;88.45
75650;BME280;64245;51.282;22.494;2023-09-08T07:32:04;99965.53;;;20.04;88.75
75650;BME280;64245;51.282;22.494;2023-09-08T07:34:30;99963.38;;;20.14;91.77
75650;BME280;64245;51.282;22.494;2023-09-08T07:36:56;99967.44;;;20.18;87.48
75650;BME280;64245;51.282;22.494;2023-09-08T07:39:22;99967.50;;;20.25;85.15
75650;BME280;64245;51.282;22.494;2023-09-08T07:41:47;99971.38;;;20.30;85.73
75650;BME280;64245;51.282;22.494;2023-09-08T07:44:13;99967.72;;;20.38;84.03
75650;BME280;64245;51.282;22.494;2023-09-08T07:46:38;99969.75;;;20.51;83.69
75650;BME280;64245;51.282;22.494;2023-09-08T07:49:04;99973.44;;;20.58;82.45
75650;BME280;64245;51.282;22.494;2023-09-08T07:51:30;99963.41;;;20.65;80.79
75650;BME280;64245;51.282;22.494;2023-09-08T07:53:56;99965.59;;;20.91;81.84
75650;BME280;64245;51.282;22.494;2023-09-08T07:56:22;99969.69;;;21.01;81.66
75650;BME280;64245;51.282;22.494;2023-09-08T07:58:48;99959.13;;;20.98;77.89
75650;BME280;64245;51.282;22.494;2023-09-08T08:01:14;99965.13;;;21.09;77.48
75650;BME280;64245;51.282;22.494;2023-09-08T08:03:41;99960.00;;;21.20;77.56
75650;BME280;64245;51.282;22.494;2023-09-08T08:06:06;99955.81;;;21.46;77.21
75650;BME280;64245;51.282;22.494;2023-09-08T08:08:33;99961.56;;;21.57;75.61
75650;BME280;64245;51.282;22.494;2023-09-08T08:11:03;99957.00;;;21.64;75.54
75650;BME280;64245;51.282;22.494;2023-09-08T08:13:33;99964.88;;;21.74;73.81
75650;BME280;64245;51.282;22.494;2023-09-08T08:15:59;99958.19;;;21.83;72.43
75650;BME280;64245;51.282;22.494;2023-09-08T08:18:24;99949.06;;;22.04;69.66
75650;BME280;64245;51.282;22.494;2023-09-08T08:20:50;99951.81;;;22.04;69.86
75650;BME280;64245;51.282;22.494;2023-09-08T08:23:16;99952.13;;;21.94;68.88
75650;BME280;64245;51.282;22.494;2023-09-08T08:25:41;99955.19;;;22.06;68.51
75650;BME280;64245;51.282;22.494;2023-09-08T08:28:07;99955.50;;;22.24;68.26
75650;BME280;64245;51.282;22.494;2023-09-08T08:30:33;99950.06;;;22.37;68.87
75650;BME280;64245;51.282;22.494;2023-09-08T08:32:59;99958.13;;;22.52;66.95
75650;BME280;64245;51.282;22.494;2023-09-08T08:35:24;99960.69;;;22.54;68.97
75650;BME280;64245;51.282;22.494;2023-09-08T08:37:50;99956.31;;;22.66;66.21
75650;BME280;64245;51.282;22.494;2023-09-08T08:40:15;99959.03;;;22.59;65.28
75650;BME280;64245;51.282;22.494;2023-09-08T08:42:41;99956.91;;;22.61;68.05
75650;BME280;64245;51.282;22.494;2023-09-08T08:45:10;99956.16;;;22.33;66.73
75650;BME280;64245;51.282;22.494;2023-09-08T08:47:37;99961.28;;;22.43;66.64
75650;BME280;64245;51.282;22.494;2023-09-08T08:50:05;99964.06;;;22.56;65.85
75650;BME280;64245;51.282;22.494;2023-09-08T08:52:35;99956.41;;;22.31;63.53
75650;BME280;64245;51.282;22.494;2023-09-08T08:55:01;99961.88;;;22.38;64.55
75650;BME280;64245;51.282;22.494;2023-09-08T08:57:27;99960.94;;;22.65;67.30
75650;BME280;64245;51.282;22.494;2023-09-08T08:59:53;99951.03;;;22.71;65.64
75650;BME280;64245;51.282;22.494;2023-09-08T09:02:19;99952.31;;;22.75;61.93
75650;BME280;64245;51.282;22.494;2023-09-08T09:04:47;99956.81;;;22.96;62.96
75650;BME280;64245;51.282;22.494;2023-09-08T09:07:13;99955.75;;;22.90;63.64
75650;BME280;64245;51.282;22.494;2023-09-08T09:09:38;99951.34;;;22.96;63.90
75650;BME280;64245;51.282;22.494;2023-09-08T09:12:06;99946.72;;;23.23;61.69
75650;BME280;64245;51.282;22.494;2023-09-08T09:14:32;99941.66;;;23.26;63.16
75650;BME280;64245;51.282;22.494;2023-09-08T09:16:59;99946.50;;;23.31;63.44
75650;BME280;64245;51.282;22.494;2023-09-08T09:19:25;99945.66;;;23.30;64.77
75650;BME280;64245;51.282;22.494;2023-09-08T09:21:53;99926.88;;;23.27;73.41
75650;BME280;64245;51.282;22.494;2023-09-08T09:24:41;99944.41;;;23.53;62.99
75650;BME280;64245;51.282;22.494;2023-09-08T09:27:09;99945.69;;;23.43;62.45
75650;BME280;64245;51.282;22.494;2023-09-08T09:29:43;99939.97;;;23.52;62.66
75650;BME280;64245;51.282;22.494;2023-09-08T09:32:10;99932.34;;;23.67;63.04
75650;BME280;64245;51.282;22.494;2023-09-08T09:34:47;99931.25;;;24.01;66.62
75650;BME280;64245;51.282;22.494;2023-09-08T09:37:13;99920.19;;;24.14;60.30
75650;BME280;64245;51.282;22.494;2023-09-08T09:39:38;99928.19;;;24.29;59.17
75650;BME280;64245;51.282;22.494;2023-09-08T09:42:04;99935.19;;;24.31;63.81
75650;BME280;64245;51.282;22.494;2023-09-08T09:44:30;99931.16;;;24.34;61.40
75650;BME280;64245;51.282;22.494;2023-09-08T09:46:56;99928.59;;;24.39;58.49
75650;BME280;64245;51.282;22.494;2023-09-08T09:49:21;99918.47;;;24.20;57.53
75650;BME280;64245;51.282;22.494;2023-09-08T09:51:50;99931.06;;;23.69;57.38
75650;BME280;64245;51.282;22.494;2023-09-08T09:54:16;99935.97;;;23.28;61.98
75650;BME280;64245;51.282;22.494;2023-09-08T09:56:43;99921.75;;;22.85;63.42
75650;BME280;64245;51.282;22.494;2023-09-08T09:59:11;99924.09;;;23.34;59.45
75650;BME280;64245;51.282;22.494;2023-09-08T10:01:39;99925.16;;;23.79;63.87
75650;BME280;64245;51.282;22.494;2023-09-08T10:04:05;99922.72;;;24.16;65.84
75650;BME280;64245;51.282;22.494;2023-09-08T10:06:33;99919.22;;;24.47;60.46
75650;BME280;64245;51.282;22.494;2023-09-08T10:09:04;99921.94;;;24.53;59.00
75650;BME280;64245;51.282;22.494;2023-09-08T10:11:37;99901.72;;;24.72;60.49
75650;BME280;64245;51.282;22.494;2023-09-08T10:14:06;99915.88;;;25.14;59.02
75650;BME280;64245;51.282;22.494;2023-09-08T10:16:38;99918.69;;;25.32;55.62
75650;BME280;64245;51.282;22.494;2023-09-08T10:19:10;99914.47;;;25.55;54.85
75650;BME280;64245;51.282;22.494;2023-09-08T10:21:40;99915.72;;;25.34;56.77
75650;BME280;64245;51.282;22.494;2023-09-08T10:24:27;99912.44;;;25.19;56.06
75650;BME280;64245;51.282;22.494;2023-09-08T10:27:10;99907.94;;;24.99;56.75
75650;BME280;64245;51.282;22.494;2023-09-08T10:29:38;99907.75;;;24.56;56.66
75650;BME280;64245;51.282;22.494;2023-09-08T10:32:05;99916.22;;;24.55;56.08
75650;BME280;64245;51.282;22.494;2023-09-08T10:34:32;99903.69;;;24.07;59.08
75650;BME280;64245;51.282;22.494;2023-09-08T10:36:59;99919.59;;;23.92;61.79
75650;BME280;64245;51.282;22.494;2023-09-08T10:45:02;99908.50;;;24.25;65.76
75650;BME280;64245;51.282;22.494;2023-09-08T10:50:18;99894.00;;;23.92;62.48
75650;BME280;64245;51.282;22.494;2023-09-08T10:52:46;99896.25;;;24.15;57.74
75650;BME280;64245;51.282;22.494;2023-09-08T10:55:49;99897.38;;;24.83;56.97
75650;BME280;64245;51.282;22.494;2023-09-08T10:58:37;99885.25;;;25.22;58.79
75650;BME280;64245;51.282;22.494;2023-09-08T11:01:13;99891.69;;;25.84;56.79
75650;BME280;64245;51.282;22.494;2023-09-08T11:06:07;99867.66;;;26.39;49.33
75650;BME280;64245;51.282;22.494;2023-09-08T11:08:36;99882.16;;;26.53;53.22
75650;BME280;64245;51.282;22.494;2023-09-08T11:11:02;99874.81;;;26.47;55.20
75650;BME280;64245;51.282;22.494;2023-09-08T11:13:29;99872.84;;;26.77;52.61
75650;BME280;64245;51.282;22.494;2023-09-08T11:15:55;99868.41;;;27.18;52.16
75650;BME280;64245;51.282;22.494;2023-09-08T11:18:28;99864.28;;;28.14;48.57
75650;BME280;64245;51.282;22.494;2023-09-08T11:20:54;99867.69;;;28.73;44.41
75650;BME280;64245;51.282;22.494;2023-09-08T11:23:21;99862.22;;;28.61;47.46
75650;BME280;64245;51.282;22.494;2023-09-08T11:25:47;99868.56;;;29.18;44.51
75650;BME280;64245;51.282;22.494;2023-09-08T11:28:16;99866.97;;;29.23;44.98
75650;BME280;64245;51.282;22.494;2023-09-08T11:30:42;99864.25;;;29.78;43.27
75650;BME280;64245;51.282;22.494;2023-09-08T11:33:15;99865.28;;;28.76;45.17
75650;BME280;64245;51.282;22.494;2023-09-08T11:35:41;99868.56;;;29.18;43.56
75650;BME280;64245;51.282;22.494;2023-09-08T11:38:10;99862.50;;;29.21;43.76
75650;BME280;64245;51.282;22.494;2023-09-08T11:40:37;99851.22;;;29.11;44.68
75650;BME280;64245;51.282;22.494;2023-09-08T11:43:04;99847.41;;;29.68;42.92
75650;BME280;64245;51.282;22.494;2023-09-08T11:45:30;99849.59;;;30.48;39.30
75650;BME280;64245;51.282;22.494;2023-09-08T11:47:57;99851.91;;;31.10;39.75
75650;BME280;64245;51.282;22.494;2023-09-08T11:50:23;99845.97;;;31.28;35.35
75650;BME280;64245;51.282;22.494;2023-09-08T11:52:51;99841.94;;;31.14;36.86
75650;BME280;64245;51.282;22.494;2023-09-08T11:55:18;99835.59;;;30.91;38.24
75650;BME280;64245;51.282;22.494;2023-09-08T11:57:49;99840.84;;;31.15;37.56
75650;BME280;64245;51.282;22.494;2023-09-08T12:00:19;99845.06;;;30.90;42.03
75650;BME280;64245;51.282;22.494;2023-09-08T12:02:51;99831.94;;;31.18;42.00
75650;BME280;64245;51.282;22.494;2023-09-08T12:05:21;99832.84;;;32.18;35.04
75650;BME280;64245;51.282;22.494;2023-09-08T12:07:51;99832.56;;;30.93;40.80
75650;BME280;64245;51.282;22.494;2023-09-08T12:10:16;99827.97;;;30.06;38.93
75650;BME280;64245;51.282;22.494;2023-09-08T12:12:52;99820.47;;;30.77;37.46
75650;BME280;64245;51.282;22.494;2023-09-08T12:17:58;99819.75;;;32.13;36.44
75650;BME280;64245;51.282;22.494;2023-09-08T12:20:23;99811.81;;;32.63;35.50
75650;BME280;64245;51.282;22.494;2023-09-08T12:22:50;99812.16;;;31.93;35.89
75650;BME280;64245;51.282;22.494;2023-09-08T12:25:16;99805.63;;;32.30;33.98
75650;BME280;64245;51.282;22.494;2023-09-08T12:27:42;99809.59;;;32.70;35.48
75650;BME280;64245;51.282;22.494;2023-09-08T12:30:08;99807.47;;;31.62;35.02
75650;BME280;64245;51.282;22.494;2023-09-08T12:32:35;99797.53;;;31.71;34.95
75650;BME280;64245;51.282;22.494;2023-09-08T12:35:03;99791.88;;;32.13;35.58
75650;BME280;64245;51.282;22.494;2023-09-08T12:37:30;99790.19;;;32.07;34.83
75650;BME280;64245;51.282;22.494;2023-09-08T12:39:56;99786.97;;;31.78;37.59
75650;BME280;64245;51.282;22.494;2023-09-08T12:42:22;99786.63;;;31.22;37.91
75650;BME280;64245;51.282;22.494;2023-09-08T12:44:54;99775.47;;;31.17;38.76
75650;BME280;64245;51.282;22.494;2023-09-08T12:47:19;99782.16;;;32.21;34.39
75650;BME280;64245;51.282;22.494;2023-09-08T12:49:45;99777.88;;;31.98;36.99
75650;BME280;64245;51.282;22.494;2023-09-08T12:52:11;99783.78;;;32.17;36.32
75650;BME280;64245;51.282;22.494;2023-09-08T12:54:38;99775.81;;;32.56;35.38
75650;BME280;64245;51.282;22.494;2023-09-08T12:57:09;99772.81;;;33.08;35.28
75650;BME280;64245;51.282;22.494;2023-09-08T12:59:35;99790.59;;;32.72;35.49